Terminal Aerodrome Forecast
Issued by NWS

Home | Current Version | Previous Version | Text Only | Print | Product List | Glossary On
Versions: 1 2 3 4 5 6 7 8 9 10 11 12 13 14 15 16 17 18 19 20 21 22 23 24 25 26 27 28 29 30 31 32 33
000
FTUS45 KGJT 242339
TAFVEL
TAF
KVEL 242339Z 2500/2524 VRB03KT P6SM SCT120 BKN200
     FM250300 31005KT P6SM SCT090 BKN120
     FM250600 02004KT P6SM VCSH BKN050
     FM251200 VRB02KT P6SM VCSH OVC015
     FM251800 05008KT 2SM -SN BR OVC015=

USA.gov is the U.S. government's official web portal to all federal, state and local government web resources and services.